Time;durP1;ratioP1;P1;durP2;ratioP2;P2;SDS_P1;SDS_P2;PMS_P1;PMS_P2;Temp;Humidity;BMP_temperature;BMP_pressure;BME280_temperature;BME280_humidity;BME280_pressure;Samples;Min_cycle;Max_cycle;Signal;HPM_P1;HPM_P2
2021/06/07 00:02:09;;;;;;;;;;;;;;;19.36;70.56;100924.50;5045705;28;1943;-45
2021/06/07 00:04:35;;;;;;;;;;;;;;;19.40;69.31;100919.72;5051558;28;1838;-44
2021/06/07 00:07:11;;;;;;;;;;;;;;;19.41;69.89;100932.13;5045820;28;1614;-46
2021/06/07 00:09:41;;;;;;;;;;;;;;;19.41;69.44;100926.75;5042930;28;1618;-44
2021/06/07 00:12:14;;;;;;;;;;;;;;;19.42;69.87;100934.69;5044431;28;1992;-45
2021/06/07 00:14:40;;;;;;;;;;;;;;;19.39;69.74;100928.72;5047033;28;1585;-45
2021/06/07 00:17:06;;;;;;;;;;;;;;;19.43;69.17;100936.38;5050184;28;1732;-46
2021/06/07 00:19:33;;;;;;;;;;;;;;;19.41;68.83;100919.56;5044583;28;1044;-45
2021/06/07 00:22:01;;;;;;;;;;;;;;;19.40;69.51;100935.81;5048944;28;1601;-45
2021/06/07 00:24:28;;;;;;;;;;;;;;;19.38;69.58;100917.16;5046757;28;1761;-45
2021/06/07 00:27:16;;;;;;;;;;;;;;;19.38;69.70;100930.56;5044380;28;1761;-45
2021/06/07 00:29:44;;;;;;;;;;;;;;;19.37;69.14;100923.50;5050213;28;1728;-45
2021/06/07 00:32:10;;;;;;;;;;;;;;;19.36;69.49;100927.19;5044336;28;1902;-45
2021/06/07 00:34:37;;;;;;;;;;;;;;;19.37;68.88;100923.50;5049529;28;1839;-45
2021/06/07 00:37:04;;;;;;;;;;;;;;;19.35;69.49;100917.41;5052548;28;1469;-44
2021/06/07 00:39:30;;;;;;;;;;;;;;;19.35;69.41;100914.75;5048203;28;1621;-46
2021/06/07 00:41:57;;;;;;;;;;;;;;;19.24;70.10;100907.66;5051325;28;1536;-45
2021/06/07 00:44:23;;;;;;;;;;;;;;;19.25;70.10;100911.16;5045222;28;1349;-45
2021/06/07 00:46:50;;;;;;;;;;;;;;;19.27;69.67;100918.09;5049194;28;1392;-44
2021/06/07 00:49:16;;;;;;;;;;;;;;;19.30;68.79;100903.59;5051093;28;1822;-45
2021/06/07 00:51:43;;;;;;;;;;;;;;;19.31;69.05;100904.44;5050653;28;1910;-45
2021/06/07 00:54:10;;;;;;;;;;;;;;;19.24;69.06;100904.97;5048614;28;1791;-44
2021/06/07 00:56:38;;;;;;;;;;;;;;;19.26;69.40;100918.25;5055526;28;1488;-45
2021/06/07 00:59:10;;;;;;;;;;;;;;;19.23;69.50;100913.97;5055080;28;1450;-45
2021/06/07 01:01:37;;;;;;;;;;;;;;;19.23;69.16;100905.09;5049736;28;1639;-45
2021/06/07 01:04:04;;;;;;;;;;;;;;;19.22;69.32;100906.94;5042514;28;1502;-45
2021/06/07 01:06:33;;;;;;;;;;;;;;;19.21;69.80;100912.41;5054706;28;1461;-45
2021/06/07 01:09:06;;;;;;;;;;;;;;;19.20;69.24;100906.22;5051733;28;1619;-46
2021/06/07 01:11:35;;;;;;;;;;;;;;;19.17;69.09;100902.94;5051060;28;1969;-45
2021/06/07 01:14:04;;;;;;;;;;;;;;;19.21;68.98;100915.09;5040787;28;1705;-45
2021/06/07 01:16:36;;;;;;;;;;;;;;;19.26;68.71;100919.09;5046483;28;1467;-45
2021/06/07 01:19:02;;;;;;;;;;;;;;;19.26;68.06;100900.31;5053055;28;1781;-45
2021/06/07 01:21:30;;;;;;;;;;;;;;;19.28;68.64;100900.19;5053810;28;1427;-45
2021/06/07 01:24:05;;;;;;;;;;;;;;;19.21;68.91;100904.38;5042821;28;1666;-44
2021/06/07 01:26:31;;;;;;;;;;;;;;;19.19;69.05;100900.97;5046243;28;1543;-45
2021/06/07 01:28:59;;;;;;;;;;;;;;;19.17;68.85;100898.44;5055076;28;1743;-44
2021/06/07 01:31:26;;;;;;;;;;;;;;;19.17;68.91;100906.47;5047865;28;1969;-46
2021/06/07 01:34:07;;;;;;;;;;;;;;;19.18;68.85;100899.25;5046338;28;1847;-45
2021/06/07 01:36:34;;;;;;;;;;;;;;;19.21;68.03;100907.91;5036801;28;1664;-45
2021/06/07 01:39:05;;;;;;;;;;;;;;;19.26;68.00;100899.47;5053160;28;1586;-45
2021/06/07 01:41:45;;;;;;;;;;;;;;;19.25;67.99;100897.75;5046997;28;1751;-44
2021/06/07 01:44:11;;;;;;;;;;;;;;;19.23;67.57;100902.41;5055149;28;1382;-46
2021/06/07 01:46:38;;;;;;;;;;;;;;;19.26;67.42;100907.53;5054514;28;1789;-45
2021/06/07 01:49:05;;;;;;;;;;;;;;;19.21;67.64;100899.00;5043681;28;1549;-45
2021/06/07 01:51:31;;;;;;;;;;;;;;;19.20;67.87;100913.38;5048651;28;1996;-44
2021/06/07 01:53:57;;;;;;;;;;;;;;;19.17;68.40;100911.81;5046631;28;1402;-45
2021/06/07 01:56:29;;;;;;;;;;;;;;;19.13;68.59;100910.41;5053859;28;1629;-45
2021/06/07 01:58:56;;;;;;;;;;;;;;;19.11;68.82;100915.03;5052170;28;1603;-45
2021/06/07 02:01:29;;;;;;;;;;;;;;;19.11;68.48;100914.19;5052252;22;3787;-78
2021/06/07 02:03:55;;;;;;;;;;;;;;;19.10;68.08;100908.00;5027270;28;1373;-80
2021/06/07 02:06:22;;;;;;;;;;;;;;;19.14;68.39;100924.63;5028238;28;1414;-80
2021/06/07 02:08:49;;;;;;;;;;;;;;;19.04;68.08;100904.00;5030322;28;1444;-80
2021/06/07 02:11:18;;;;;;;;;;;;;;;19.04;68.52;100906.69;5031373;28;1976;-78
2021/06/07 02:13:47;;;;;;;;;;;;;;;19.10;68.57;100917.84;5036345;28;1280;-81
2021/06/07 02:16:15;;;;;;;;;;;;;;;19.12;67.67;100915.88;5028775;28;1403;-81
2021/06/07 02:18:42;;;;;;;;;;;;;;;19.07;68.24;100908.25;5023724;28;1714;-81
2021/06/07 02:21:08;;;;;;;;;;;;;;;19.03;68.25;100899.63;5023703;28;1607;-83
2021/06/07 02:23:34;;;;;;;;;;;;;;;19.05;67.97;100905.69;5037539;28;1376;-82
2021/06/07 02:26:01;;;;;;;;;;;;;;;19.06;67.42;100912.78;5042127;28;1702;-81
2021/06/07 02:28:27;;;;;;;;;;;;;;;19.11;66.61;100904.31;5037881;28;1590;-80
2021/06/07 02:30:55;;;;;;;;;;;;;;;19.12;67.00;100905.16;5036518;28;1914;-78
2021/06/07 02:33:21;;;;;;;;;;;;;;;19.05;67.73;100910.22;5032157;28;1432;-82
2021/06/07 02:35:47;;;;;;;;;;;;;;;19.08;66.96;100905.44;5037432;28;1494;-78
2021/06/07 02:38:14;;;;;;;;;;;;;;;19.10;66.99;100923.22;5039633;28;1512;-78
2021/06/07 02:40:42;;;;;;;;;;;;;;;19.00;67.67;100915.09;5037882;28;1504;-81
2021/06/07 02:43:08;;;;;;;;;;;;;;;19.00;67.60;100928.50;5031954;28;1451;-81
2021/06/07 02:45:34;;;;;;;;;;;;;;;18.90;67.65;100917.75;5040209;28;1716;-79
2021/06/07 02:48:03;;;;;;;;;;;;;;;18.96;67.61;100938.66;5047942;28;1355;-80
2021/06/07 02:50:30;;;;;;;;;;;;;;;18.99;67.87;100930.34;5059553;28;1905;-80
2021/06/07 02:52:57;;;;;;;;;;;;;;;18.99;67.52;100938.38;5052281;28;1316;-78
2021/06/07 02:55:24;;;;;;;;;;;;;;;18.98;67.75;100942.06;5055949;28;1661;-78
2021/06/07 02:57:51;;;;;;;;;;;;;;;19.00;67.33;100953.50;5050085;28;1448;-82
2021/06/07 03:00:18;;;;;;;;;;;;;;;18.99;66.87;100943.75;5045855;28;1567;-79
2021/06/07 03:02:45;;;;;;;;;;;;;;;18.99;67.23;100938.38;5052152;28;1637;-82
2021/06/07 03:05:13;;;;;;;;;;;;;;;18.97;67.38;100935.00;5049972;28;1255;-79
2021/06/07 03:07:39;;;;;;;;;;;;;;;19.00;67.00;100923.16;5048246;28;1670;-78
2021/06/07 03:10:06;;;;;;;;;;;;;;;19.03;66.28;100934.47;5054512;28;1672;-79
2021/06/07 03:12:32;;;;;;;;;;;;;;;19.07;66.05;100930.53;5057272;28;1977;-81
2021/06/07 03:14:58;;;;;;;;;;;;;;;19.10;66.12;100950.00;5049035;28;1657;-80
2021/06/07 03:17:25;;;;;;;;;;;;;;;19.10;66.05;100955.38;5049331;28;1372;-78
2021/06/07 03:19:51;;;;;;;;;;;;;;;19.10;65.37;100947.34;5041850;28;1630;-78
2021/06/07 03:22:21;;;;;;;;;;;;;;;19.05;66.17;100927.13;5046500;28;1464;-82
2021/06/07 03:24:47;;;;;;;;;;;;;;;19.03;66.74;100939.81;5054603;28;1427;-78
2021/06/07 03:27:13;;;;;;;;;;;;;;;19.06;66.05;100944.09;5056947;28;1626;-79
2021/06/07 03:29:40;;;;;;;;;;;;;;;19.13;65.66;100944.41;5041726;28;1627;-78
2021/06/07 03:32:06;;;;;;;;;;;;;;;19.18;65.97;100943.03;5045379;28;1914;-78
2021/06/07 03:34:32;;;;;;;;;;;;;;;19.18;65.66;100958.25;5044234;28;1348;-80
2021/06/07 03:36:58;;;;;;;;;;;;;;;19.19;65.83;100951.91;5054139;28;1351;-82
2021/06/07 03:39:26;;;;;;;;;;;;;;;19.21;65.86;100949.94;5053070;28;1771;-81
2021/06/07 03:41:52;;;;;;;;;;;;;;;19.18;66.26;100951.06;5051645;28;1602;-79
2021/06/07 03:44:18;;;;;;;;;;;;;;;19.19;66.34;100950.06;5062090;28;1630;-83
2021/06/07 03:46:44;;;;;;;;;;;;;;;19.24;65.92;100952.38;5056781;23;3610;-44
2021/06/07 03:49:11;;;;;;;;;;;;;;;19.25;66.29;100946.88;5030796;28;1597;-44
2021/06/07 03:51:48;;;;;;;;;;;;;;;19.28;66.08;100943.09;5024917;28;1925;-45
2021/06/07 03:54:15;;;;;;;;;;;;;;;19.29;66.44;100944.78;5026791;28;1793;-46
2021/06/07 03:56:45;;;;;;;;;;;;;;;19.37;66.51;100942.25;5030023;28;1917;-44
2021/06/07 03:59:13;;;;;;;;;;;;;;;19.42;67.20;100953.47;5029800;28;1498;-45
2021/06/07 04:01:47;;;;;;;;;;;;;;;19.46;67.04;100938.78;5025404;28;1586;-45
2021/06/07 04:04:13;;;;;;;;;;;;;;;19.50;67.75;100957.28;5047500;28;1523;-45
2021/06/07 04:06:42;;;;;;;;;;;;;;;19.48;68.19;100952.06;5048685;28;1599;-45
2021/06/07 04:09:11;;;;;;;;;;;;;;;19.47;68.25;100953.88;5049086;28;1486;-44
2021/06/07 04:11:38;;;;;;;;;;;;;;;19.52;68.64;100950.81;5050306;28;1879;-45
2021/06/07 04:14:19;;;;;;;;;;;;;;;19.55;68.10;100944.34;5052453;28;1567;-44
2021/06/07 04:16:46;;;;;;;;;;;;;;;19.59;68.17;100967.22;5053147;28;1525;-44
2021/06/07 04:19:12;;;;;;;;;;;;;;;19.63;68.05;100945.34;5052851;28;1499;-48
2021/06/07 04:21:42;;;;;;;;;;;;;;;19.64;67.60;100951.56;5060270;28;1641;-44
2021/06/07 04:24:11;;;;;;;;;;;;;;;19.69;67.67;100946.63;5048529;28;1614;-44
2021/06/07 04:26:45;;;;;;;;;;;;;;;19.72;67.72;100950.94;5047583;28;1568;-45
2021/06/07 04:29:11;;;;;;;;;;;;;;;19.75;66.64;100946.13;5050146;28;1447;-45
2021/06/07 04:31:37;;;;;;;;;;;;;;;19.81;67.48;100940.22;5042370;28;2144;-43
2021/06/07 04:34:06;;;;;;;;;;;;;;;19.85;67.90;100952.38;5038280;28;2038;-45
2021/06/07 04:36:35;;;;;;;;;;;;;;;19.83;68.28;100948.97;5041748;28;2963;-45
2021/06/07 04:39:07;;;;;;;;;;;;;;;19.89;67.52;100952.09;5039396;28;2804;-46
2021/06/07 04:41:35;;;;;;;;;;;;;;;19.97;68.03;100944.22;5043618;28;2701;-45
2021/06/07 04:44:02;;;;;;;;;;;;;;;19.99;67.81;100952.97;5047558;28;1508;-44
2021/06/07 04:46:28;;;;;;;;;;;;;;;19.91;68.11;100944.78;5044504;28;1971;-44
2021/06/07 04:51:38;;;;;;;;;;;;;;;19.94;67.70;100976.72;5047184;28;2497;-46
2021/06/07 04:54:10;;;;;;;;;;;;;;;19.92;67.88;100959.91;5045252;28;2070;-46
2021/06/07 04:56:36;;;;;;;;;;;;;;;19.94;67.81;100958.78;5037316;28;1600;-47
2021/06/07 04:59:10;;;;;;;;;;;;;;;19.96;67.85;100951.44;5048782;28;1613;-46
2021/06/07 05:01:37;;;;;;;;;;;;;;;19.94;68.51;100974.03;5047703;28;1549;-45
2021/06/07 05:04:05;;;;;;;;;;;;;;;19.94;68.44;100968.66;5044232;28;1532;-46
2021/06/07 05:06:32;;;;;;;;;;;;;;;19.91;67.75;100966.25;5048293;28;1548;-46
2021/06/07 05:08:59;;;;;;;;;;;;;;;19.88;68.76;100972.75;5050881;28;1931;-45
2021/06/07 05:11:25;;;;;;;;;;;;;;;19.89;67.75;100976.25;5047485;28;1910;-47
2021/06/07 05:13:52;;;;;;;;;;;;;;;19.86;68.71;100967.50;5045808;28;1966;-45
2021/06/07 05:16:18;;;;;;;;;;;;;;;19.89;68.59;100982.47;5042681;28;1670;-45
2021/06/07 05:18:45;;;;;;;;;;;;;;;19.90;68.47;100976.13;5049476;28;1727;-45
2021/06/07 05:21:13;;;;;;;;;;;;;;;19.89;68.74;100979.78;5044066;28;1682;-45
2021/06/07 05:23:41;;;;;;;;;;;;;;;19.88;67.99;100971.91;5051584;28;1751;-46
2021/06/07 05:26:11;;;;;;;;;;;;;;;19.90;68.01;100977.97;5050497;28;1841;-46
2021/06/07 05:28:38;;;;;;;;;;;;;;;19.89;68.08;100970.91;5051886;28;1737;-46
2021/06/07 05:31:05;;;;;;;;;;;;;;;19.91;68.66;100979.66;5051881;28;2111;-46
2021/06/07 05:33:33;;;;;;;;;;;;;;;19.88;68.83;100958.47;5049077;28;1765;-45
2021/06/07 05:36:00;;;;;;;;;;;;;;;19.89;69.17;100976.25;5053489;28;1740;-45
2021/06/07 05:38:28;;;;;;;;;;;;;;;19.93;68.40;100975.00;5052867;28;1631;-46
2021/06/07 05:40:56;;;;;;;;;;;;;;;19.93;69.19;100975.84;5047356;28;1705;-46
2021/06/07 05:43:26;;;;;;;;;;;;;;;19.95;68.61;100978.41;5048627;28;1517;-45
2021/06/07 05:45:53;;;;;;;;;;;;;;;19.98;69.66;100984.34;5051323;28;1531;-47
2021/06/07 05:48:23;;;;;;;;;;;;;;;19.99;69.22;100982.50;5047664;28;1784;-45
2021/06/07 05:50:49;;;;;;;;;;;;;;;20.03;69.05;100975.88;5052467;28;1913;-47
2021/06/07 05:56:16;;;;;;;;;;;;;;;20.02;69.56;100979.56;5052279;28;3118;-45
2021/06/07 05:58:44;;;;;;;;;;;;;;;20.04;69.39;100983.81;5052790;28;1596;-45
2021/06/07 06:01:12;;;;;;;;;;;;;;;20.10;69.11;100993.16;5053009;28;1636;-46
2021/06/07 06:03:39;;;;;;;;;;;;;;;20.09;69.27;100980.69;5052752;28;1589;-45
2021/06/07 06:06:06;;;;;;;;;;;;;;;20.13;69.64;100982.13;5052351;28;1680;-45
2021/06/07 06:08:34;;;;;;;;;;;;;;;20.16;69.30;100992.59;5050030;28;1854;-46
2021/06/07 06:11:02;;;;;;;;;;;;;;;20.21;69.15;100989.47;5046330;28;1898;-46
2021/06/07 06:13:31;;;;;;;;;;;;;;;20.20;69.24;100977.91;5049810;28;1763;-45
2021/06/07 06:15:59;;;;;;;;;;;;;;;20.16;69.58;100987.22;5052741;28;1934;-46
2021/06/07 06:18:26;;;;;;;;;;;;;;;20.17;69.87;100986.22;5045037;28;1829;-45
2021/06/07 06:20:54;;;;;;;;;;;;;;;20.18;68.85;100971.81;5045748;28;1611;-46
2021/06/07 06:26:03;;;;;;;;;;;;;;;20.25;68.77;100977.47;5049554;28;2285;-45
2021/06/07 06:28:34;;;;;;;;;;;;;;;20.24;69.58;100989.22;5053626;28;1605;-46
2021/06/07 06:31:16;;;;;;;;;;;;;;;20.23;68.92;100972.28;5041886;28;1979;-45
2021/06/07 06:34:01;;;;;;;;;;;;;;;20.23;69.33;100969.59;5038421;28;1914;-45
2021/06/07 06:36:32;;;;;;;;;;;;;;;20.24;68.70;100962.38;5049880;28;1938;-45
2021/06/07 06:39:02;;;;;;;;;;;;;;;20.28;69.11;100985.28;5051455;28;1853;-45
2021/06/07 06:41:32;;;;;;;;;;;;;;;20.27;68.53;100995.16;5052158;28;1502;-45
2021/06/07 06:43:58;;;;;;;;;;;;;;;20.27;69.11;100984.44;5049507;28;1932;-45
2021/06/07 06:46:24;;;;;;;;;;;;;;;20.29;68.11;100986.94;5046326;28;1696;-45
2021/06/07 06:48:59;;;;;;;;;;;;;;;20.40;68.66;100986.84;5047649;28;2542;-45
2021/06/07 06:51:26;;;;;;;;;;;;;;;20.40;68.10;100980.63;5051194;28;1906;-45
2021/06/07 06:53:54;;;;;;;;;;;;;;;20.45;68.42;100983.72;5048773;28;1566;-45
2021/06/07 06:56:21;;;;;;;;;;;;;;;20.44;68.21;100974.81;5048209;28;1583;-46
2021/06/07 06:58:49;;;;;;;;;;;;;;;20.41;69.04;100975.13;5049426;28;1681;-49
2021/06/07 07:01:20;;;;;;;;;;;;;;;20.36;68.68;100972.00;5051341;28;1818;-45
2021/06/07 07:03:47;;;;;;;;;;;;;;;20.39;68.55;100985.16;5048811;28;1463;-46
2021/06/07 07:06:16;;;;;;;;;;;;;;;20.42;67.75;100975.97;5052823;28;1359;-45
2021/06/07 07:08:45;;;;;;;;;;;;;;;20.41;68.89;100990.38;5044114;28;1771;-46
2021/06/07 07:11:15;;;;;;;;;;;;;;;20.38;68.86;100977.22;5050290;28;1909;-46
2021/06/07 07:13:41;;;;;;;;;;;;;;;20.40;68.97;100986.00;5050426;28;1746;-45
2021/06/07 07:16:09;;;;;;;;;;;;;;;20.44;68.28;100990.09;5051894;28;1681;-45
2021/06/07 07:18:39;;;;;;;;;;;;;;;20.42;68.43;100976.81;5048908;28;1819;-48
2021/06/07 07:21:08;;;;;;;;;;;;;;;20.42;67.77;100976.81;5043193;28;1909;-46
2021/06/07 07:23:35;;;;;;;;;;;;;;;20.45;68.37;100992.66;5047807;28;1432;-47
2021/06/07 07:26:11;;;;;;;;;;;;;;;20.42;67.77;100973.28;5051327;28;1434;-45
2021/06/07 07:28:41;;;;;;;;;;;;;;;20.42;68.63;100981.34;5049522;28;1448;-46
2021/06/07 07:33:50;;;;;;;;;;;;;;;20.49;68.48;100993.19;5049382;28;1717;-45
2021/06/07 07:36:20;;;;;;;;;;;;;;;20.52;68.36;100992.94;5045587;28;1375;-46
2021/06/07 07:38:46;;;;;;;;;;;;;;;20.54;68.50;100998.19;5047500;28;1492;-46
2021/06/07 07:41:16;;;;;;;;;;;;;;;20.53;67.78;100989.28;5050048;28;1290;-46
2021/06/07 07:43:43;;;;;;;;;;;;;;;20.52;68.15;100986.72;5052307;28;1770;-46
2021/06/07 07:46:09;;;;;;;;;;;;;;;20.55;67.83;100991.78;5043952;28;1776;-48
2021/06/07 07:48:36;;;;;;;;;;;;;;;20.56;67.10;100982.75;5047943;28;1404;-45
2021/06/07 07:51:03;;;;;;;;;;;;;;;20.58;67.15;100991.53;5042938;28;1906;-46
2021/06/07 07:53:31;;;;;;;;;;;;;;;20.61;66.87;100970.63;5014444;28;1473;-46
2021/06/07 07:56:01;;;;;;;;;;;;;;;20.66;66.67;100995.22;5051803;28;1525;-46
2021/06/07 07:58:27;;;;;;;;;;;;;;;20.72;65.61;100992.97;5043718;28;2756;-48
2021/06/07 08:00:55;;;;;;;;;;;;;;;20.75;66.43;100995.38;5050364;28;1447;-46
2021/06/07 08:03:24;;;;;;;;;;;;;;;20.75;64.97;100987.31;5044036;28;1932;-47
2021/06/07 08:05:50;;;;;;;;;;;;;;;20.75;64.64;100987.31;5043702;28;1789;-47
2021/06/07 08:08:17;;;;;;;;;;;;;;;20.72;64.90;100987.59;5047142;28;1938;-50
2021/06/07 08:13:25;;;;;;;;;;;;;;;20.80;65.40;100993.13;5045516;28;2342;-50
2021/06/07 08:15:53;;;;;;;;;;;;;;;20.78;64.53;100992.41;5044525;28;1689;-50
2021/06/07 08:18:23;;;;;;;;;;;;;;;20.70;65.38;100985.06;5043373;28;1569;-50
2021/06/07 08:21:10;;;;;;;;;;;;;;;20.73;65.84;100997.34;5047275;28;1606;-50
2021/06/07 08:23:36;;;;;;;;;;;;;;;20.66;64.91;100984.47;5044980;28;1413;-50
2021/06/07 08:26:02;;;;;;;;;;;;;;;20.69;65.94;100991.44;5045157;28;1402;-51
2021/06/07 08:28:28;;;;;;;;;;;;;;;20.74;64.92;100996.38;5051391;28;1567;-52
2021/06/07 08:30:54;;;;;;;;;;;;;;;20.76;65.52;100994.41;5045233;28;1681;-51
2021/06/07 08:33:24;;;;;;;;;;;;;;;20.82;64.29;100977.69;5050277;28;1910;-52
2021/06/07 08:35:50;;;;;;;;;;;;;;;20.77;65.16;100990.69;5045983;28;1720;-52
2021/06/07 08:38:18;;;;;;;;;;;;;;;20.86;63.59;100985.31;5045241;28;1666;-54
2021/06/07 08:40:46;;;;;;;;;;;;;;;20.88;63.85;100987.88;5046685;28;1766;-54
2021/06/07 08:43:17;;;;;;;;;;;;;;;20.92;63.25;100988.44;5050262;28;1730;-52
2021/06/07 08:45:45;;;;;;;;;;;;;;;20.94;64.15;100983.78;5044147;28;1822;-52
2021/06/07 08:48:14;;;;;;;;;;;;;;;20.83;63.61;100976.69;5042434;28;1683;-52
2021/06/07 08:50:45;;;;;;;;;;;;;;;20.89;62.83;100981.53;5043066;28;1653;-52
2021/06/07 08:53:20;;;;;;;;;;;;;;;20.88;62.82;100966.38;5049618;28;1913;-52
2021/06/07 08:55:47;;;;;;;;;;;;;;;20.90;62.98;100959.00;5045333;28;1704;-52
2021/06/07 08:58:14;;;;;;;;;;;;;;;20.89;63.44;100983.34;5053298;28;1577;-53
2021/06/07 09:00:48;;;;;;;;;;;;;;;20.81;63.04;100979.53;5047316;28;2026;-53
2021/06/07 09:03:20;;;;;;;;;;;;;;;20.75;62.13;100976.56;5047307;28;1729;-53
2021/06/07 09:05:56;;;;;;;;;;;;;;;20.76;62.81;100962.16;5052092;28;1625;-52
2021/06/07 09:08:30;;;;;;;;;;;;;;;20.81;62.97;100973.31;5047780;28;1582;-53
2021/06/07 09:10:58;;;;;;;;;;;;;;;20.79;62.56;100973.47;5049810;28;1354;-53
2021/06/07 09:13:28;;;;;;;;;;;;;;;20.79;62.83;100959.16;5048300;28;1910;-53
2021/06/07 09:15:58;;;;;;;;;;;;;;;20.73;63.44;100965.09;5048319;28;1493;-53
2021/06/07 09:18:33;;;;;;;;;;;;;;;20.69;62.81;100948.44;5052849;28;1560;-52
2021/06/07 09:21:06;;;;;;;;;;;;;;;20.69;63.42;100961.00;5053264;28;1774;-53
2021/06/07 09:23:44;;;;;;;;;;;;;;;20.70;63.63;100960.03;5047451;28;1566;-53
2021/06/07 09:26:25;;;;;;;;;;;;;;;20.70;63.62;100962.72;5053561;28;1797;-52
2021/06/07 09:29:16;;;;;;;;;;;;;;;20.70;63.53;100955.50;5049113;28;1375;-51
2021/06/07 09:31:45;;;;;;;;;;;;;;;20.71;62.94;100959.03;5054517;28;1906;-52
2021/06/07 09:34:13;;;;;;;;;;;;;;;20.67;62.93;100953.06;5051904;28;1947;-53
2021/06/07 09:37:04;;;;;;;;;;;;;;;20.64;63.36;100946.16;5046801;28;1776;-53
2021/06/07 09:39:31;;;;;;;;;;;;;;;20.64;63.72;100964.97;5045355;28;2152;-52
2021/06/07 09:42:08;;;;;;;;;;;;;;;20.63;63.54;100952.53;5050688;28;1880;-53
2021/06/07 09:44:54;;;;;;;;;;;;;;;20.64;62.99;100932.72;5050375;28;1842;-52
2021/06/07 09:47:22;;;;;;;;;;;;;;;20.66;63.55;100938.81;5051550;28;2034;-53
2021/06/07 09:49:52;;;;;;;;;;;;;;;20.65;63.78;100939.81;5045222;28;1669;-53
2021/06/07 09:52:43;;;;;;;;;;;;;;;20.62;62.97;100939.25;5050767;28;1971;-52
2021/06/07 09:55:11;;;;;;;;;;;;;;;20.64;63.00;100938.09;5047362;28;1418;-52
2021/06/07 09:57:43;;;;;;;;;;;;;;;20.65;63.70;100942.50;5045818;28;1745;-52
2021/06/07 10:00:11;;;;;;;;;;;;;;;20.65;63.52;100928.19;5048694;28;1683;-52
2021/06/07 10:02:37;;;;;;;;;;;;;;;20.63;63.83;100935.53;5051873;28;1541;-53
2021/06/07 10:05:05;;;;;;;;;;;;;;;20.64;63.91;100923.81;5051559;28;1570;-52
2021/06/07 10:07:35;;;;;;;;;;;;;;;20.63;64.34;100928.34;5042019;28;1873;-52
2021/06/07 10:10:09;;;;;;;;;;;;;;;20.62;64.11;100923.97;5051026;28;1782;-52
2021/06/07 10:12:39;;;;;;;;;;;;;;;20.64;63.87;100923.81;5051069;28;1972;-51
2021/06/07 10:15:08;;;;;;;;;;;;;;;20.65;63.62;100926.38;5046091;28;1683;-51
2021/06/07 10:17:42;;;;;;;;;;;;;;;20.62;64.54;100907.84;5051634;28;1480;-51
2021/06/07 10:22:58;;;;;;;;;;;;;;;20.61;64.74;100916.91;5042965;28;1709;-51
2021/06/07 10:25:24;;;;;;;;;;;;;;;20.59;64.17;100921.56;5047507;28;1940;-51
2021/06/07 10:27:54;;;;;;;;;;;;;;;20.62;64.89;100917.75;5045525;28;1544;-52
2021/06/07 10:30:21;;;;;;;;;;;;;;;20.56;65.17;100924.50;5050908;28;1934;-52
2021/06/07 10:33:08;;;;;;;;;;;;;;;20.59;65.13;100913.50;5050787;28;1971;-51
2021/06/07 10:35:37;;;;;;;;;;;;;;;20.60;65.33;100912.50;5042921;28;1508;-51
2021/06/07 10:38:11;;;;;;;;;;;;;;;20.59;65.09;100907.25;5043244;28;2081;-51
2021/06/07 10:40:40;;;;;;;;;;;;;;;20.58;64.54;100906.41;5053249;28;1768;-51
2021/06/07 10:43:21;;;;;;;;;;;;;;;20.55;65.12;100904.00;5047366;28;1561;-52
2021/06/07 10:45:49;;;;;;;;;;;;;;;20.56;64.93;100886.88;5052345;28;1556;-52
2021/06/07 10:48:37;;;;;;;;;;;;;;;20.56;64.45;100894.94;5049875;28;1919;-53
2021/06/07 10:51:08;;;;;;;;;;;;;;;20.54;64.76;100875.44;5050156;28;1667;-53
2021/06/07 10:53:43;;;;;;;;;;;;;;;20.55;64.32;100892.41;5042939;28;1906;-53
2021/06/07 10:56:19;;;;;;;;;;;;;;;20.55;65.15;100869.09;5047158;28;1841;-52
2021/06/07 10:58:56;;;;;;;;;;;;;;;20.54;65.32;100875.44;5044248;28;1878;-53
2021/06/07 11:01:22;;;;;;;;;;;;;;;20.53;65.26;100867.50;5046297;28;1745;-52
2021/06/07 11:04:05;;;;;;;;;;;;;;;20.52;65.53;100863.16;5052518;28;1488;-53
2021/06/07 11:06:32;;;;;;;;;;;;;;;20.51;65.64;100866.81;5048479;28;1560;-53
2021/06/07 11:09:06;;;;;;;;;;;;;;;20.53;65.09;100871.06;5053658;28;1960;-53
2021/06/07 11:11:51;;;;;;;;;;;;;;;20.54;64.49;100858.47;5052958;28;1914;-53
2021/06/07 11:17:22;;;;;;;;;;;;;;;20.55;64.41;100850.28;5050249;28;1611;-52
2021/06/07 11:19:52;;;;;;;;;;;;;;;20.56;65.32;100833.16;5050236;28;2138;-53
2021/06/07 11:22:18;;;;;;;;;;;;;;;20.59;64.39;100843.66;5053169;28;1514;-52
2021/06/07 11:25:13;;;;;;;;;;;;;;;20.57;64.69;100839.38;5052292;28;1689;-52
2021/06/07 11:27:40;;;;;;;;;;;;;;;20.55;64.89;100831.47;5049565;28;1589;-52
2021/06/07 11:30:12;;;;;;;;;;;;;;;20.59;64.42;100832.91;5049248;28;1785;-52
2021/06/07 11:32:59;;;;;;;;;;;;;;;20.59;63.91;100843.66;5051532;28;1898;-51
2021/06/07 11:35:43;;;;;;;;;;;;;;;20.57;63.83;100839.38;5049196;28;1594;-52
2021/06/07 11:38:28;;;;;;;;;;;;;;;20.56;63.95;100830.47;5048488;28;1771;-51
2021/06/07 11:41:02;;;;;;;;;;;;;;;20.59;64.39;100835.59;5045275;28;1702;-52
2021/06/07 11:43:47;;;;;;;;;;;;;;;20.57;63.41;100840.22;5044045;28;1834;-52
2021/06/07 11:46:40;;;;;;;;;;;;;;;20.51;64.48;100819.28;5048447;28;1560;-52
2021/06/07 11:49:07;;;;;;;;;;;;;;;20.51;64.63;100821.13;5048870;28;2114;-53
2021/06/07 11:51:34;;;;;;;;;;;;;;;20.51;64.90;100811.22;5046208;28;1963;-52
2021/06/07 11:54:03;;;;;;;;;;;;;;;20.52;63.60;100815.63;5048810;28;1309;-52
2021/06/07 11:56:39;;;;;;;;;;;;;;;20.55;64.10;100809.97;5050626;28;1413;-52
2021/06/07 11:59:06;;;;;;;;;;;;;;;20.58;63.88;100806.16;5050820;28;1605;-52
2021/06/07 12:01:45;;;;;;;;;;;;;;;20.57;64.97;100813.38;5041728;28;1557;-53
2021/06/07 12:04:14;;;;;;;;;;;;;;;20.62;65.27;100805.72;5048895;28;1518;-52
2021/06/07 12:06:40;;;;;;;;;;;;;;;20.54;64.86;100800.22;5046130;28;1389;-52
2021/06/07 12:09:07;;;;;;;;;;;;;;;20.55;64.60;100809.09;5050691;28;1541;-52
2021/06/07 12:11:38;;;;;;;;;;;;;;;20.53;65.25;100806.59;5048390;28;1906;-52
2021/06/07 12:14:04;;;;;;;;;;;;;;;20.52;65.92;100796.81;5050931;28;1553;-52
2021/06/07 12:16:37;;;;;;;;;;;;;;;20.53;65.75;100797.66;5045428;28;1593;-52
2021/06/07 12:21:48;;;;;;;;;;;;;;;20.63;65.86;100791.31;5045111;28;1587;-52
2021/06/07 12:24:19;;;;;;;;;;;;;;;20.73;65.74;100795.81;5047647;28;1533;-51
2021/06/07 12:29:31;;;;;;;;;;;;;;;20.63;66.33;100791.31;5049801;28;1585;-52
2021/06/07 12:32:04;;;;;;;;;;;;;;;20.58;66.26;100790.88;5047369;28;1984;-52
2021/06/07 12:34:30;;;;;;;;;;;;;;;20.60;66.29;100791.59;5038871;28;1487;-51
2021/06/07 12:36:56;;;;;;;;;;;;;;;20.60;66.72;100793.44;5040045;28;1413;-51
2021/06/07 12:39:22;;;;;;;;;;;;;;;20.60;65.73;100813.09;5047182;28;1771;-51
2021/06/07 12:41:51;;;;;;;;;;;;;;;20.59;66.50;100783.69;5048676;28;1799;-51
2021/06/07 12:44:21;;;;;;;;;;;;;;;20.59;66.46;100807.84;5052153;28;1503;-52
2021/06/07 12:46:47;;;;;;;;;;;;;;;20.59;66.79;100792.59;5047246;28;1471;-51
2021/06/07 12:49:21;;;;;;;;;;;;;;;20.55;65.81;100804.59;5046203;28;1461;-51
2021/06/07 12:51:55;;;;;;;;;;;;;;;20.58;66.78;100795.41;5046017;28;1906;-51
2021/06/07 12:54:21;;;;;;;;;;;;;;;20.56;67.04;100795.53;5044445;28;1788;-52
2021/06/07 12:56:49;;;;;;;;;;;;;;;20.60;66.76;100802.34;5049103;28;1720;-52
2021/06/07 12:59:17;;;;;;;;;;;;;;;20.54;66.20;100802.91;5037947;28;1629;-51
2021/06/07 13:01:46;;;;;;;;;;;;;;;20.54;66.10;100794.84;5044719;28;1557;-51
2021/06/07 13:04:13;;;;;;;;;;;;;;;20.53;66.74;100790.47;5041269;28;1613;-51
2021/06/07 13:06:43;;;;;;;;;;;;;;;20.54;67.19;100791.31;5045473;28;1465;-53
2021/06/07 13:09:11;;;;;;;;;;;;;;;20.58;66.95;100782.81;5047606;28;2025;-51
2021/06/07 13:11:38;;;;;;;;;;;;;;;20.59;66.62;100789.91;5046700;28;1965;-51
2021/06/07 13:14:05;;;;;;;;;;;;;;;20.60;66.75;100786.22;5048322;28;1543;-51
2021/06/07 13:16:37;;;;;;;;;;;;;;;20.64;66.17;100802.91;5046650;28;1811;-51
2021/06/07 13:19:06;;;;;;;;;;;;;;;20.60;66.26;100785.38;5049841;28;1663;-50
2021/06/07 13:21:39;;;;;;;;;;;;;;;20.56;67.20;100774.03;5049201;28;1493;-50
2021/06/07 13:24:06;;;;;;;;;;;;;;;20.55;67.51;100782.25;5048774;28;1851;-51
2021/06/07 13:26:34;;;;;;;;;;;;;;;20.56;67.33;100782.09;5047590;28;1682;-51